sensor_id;sensor_type;location;lat;lon;timestamp;pressure;altitude;pressure_sealevel;temperature;humidity
75697;BME280;64312;44.738;20.612;2023-01-29T00:01:06;100989.16;;;0.15;91.36
75697;BME280;64312;44.738;20.612;2023-01-29T00:03:33;100987.25;;;0.17;91.08
75697;BME280;64312;44.738;20.612;2023-01-29T00:05:59;100994.22;;;0.18;91.62
75697;BME280;64312;44.738;20.612;2023-01-29T00:08:25;100986.19;;;0.19;91.58
75697;BME280;64312;44.738;20.612;2023-01-29T00:10:51;100998.56;;;0.19;91.16
75697;BME280;64312;44.738;20.612;2023-01-29T00:13:17;100981.22;;;0.15;91.12
75697;BME280;64312;44.738;20.612;2023-01-29T00:15:55;100997.63;;;0.20;91.48
75697;BME280;64312;44.738;20.612;2023-01-29T00:18:22;100986.63;;;0.13;91.10
75697;BME280;64312;44.738;20.612;2023-01-29T00:20:48;101006.72;;;0.16;91.07
75697;BME280;64312;44.738;20.612;2023-01-29T00:23:13;101007.56;;;0.16;91.37
75697;BME280;64312;44.738;20.612;2023-01-29T00:25:40;101004.94;;;0.16;90.83
75697;BME280;64312;44.738;20.612;2023-01-29T00:28:06;101009.38;;;0.16;91.24
75697;BME280;64312;44.738;20.612;2023-01-29T00:30:32;101005.88;;;0.15;91.48
75697;BME280;64312;44.738;20.612;2023-01-29T00:32:58;101014.66;;;0.16;91.94
75697;BME280;64312;44.738;20.612;2023-01-29T00:35:26;101016.47;;;0.15;91.17
75697;BME280;64312;44.738;20.612;2023-01-29T00:37:51;101015.31;;;0.19;91.44
75697;BME280;64312;44.738;20.612;2023-01-29T00:40:18;101017.97;;;0.19;91.12
75697;BME280;64312;44.738;20.612;2023-01-29T00:42:44;101023.47;;;0.16;91.32
75697;BME280;64312;44.738;20.612;2023-01-29T00:45:28;101017.53;;;0.13;91.20
75697;BME280;64312;44.738;20.612;2023-01-29T00:47:54;101026.41;;;0.12;91.16
75697;BME280;64312;44.738;20.612;2023-01-29T00:50:20;101029.06;;;0.12;91.65
75697;BME280;64312;44.738;20.612;2023-01-29T00:52:45;101029.19;;;0.10;91.47
75697;BME280;64312;44.738;20.612;2023-01-29T00:55:13;101023.03;;;0.10;91.49
75697;BME280;64312;44.738;20.612;2023-01-29T00:57:38;101023.03;;;0.10;92.06
75697;BME280;64312;44.738;20.612;2023-01-29T01:00:07;101021.25;;;0.10;91.59
75697;BME280;64312;44.738;20.612;2023-01-29T01:02:34;101026.41;;;0.12;91.88
75697;BME280;64312;44.738;20.612;2023-01-29T01:05:18;101025.69;;;0.10;91.42
75697;BME280;64312;44.738;20.612;2023-01-29T01:07:55;101018.72;;;0.09;91.50
75697;BME280;64312;44.738;20.612;2023-01-29T01:10:31;101031.94;;;0.09;91.58
75697;BME280;64312;44.738;20.612;2023-01-29T01:13:03;101029.28;;;0.09;92.00
75697;BME280;64312;44.738;20.612;2023-01-29T01:15:33;101030.97;;;0.10;92.23
75697;BME280;64312;44.738;20.612;2023-01-29T01:18:00;101034.59;;;0.09;91.80
75697;BME280;64312;44.738;20.612;2023-01-29T01:20:29;101030.75;;;0.13;91.82
75697;BME280;64312;44.738;20.612;2023-01-29T01:22:55;101031.72;;;0.12;92.12
75697;BME280;64312;44.738;20.612;2023-01-29T01:25:23;101035.84;;;0.16;91.77
75697;BME280;64312;44.738;20.612;2023-01-29T01:27:53;101037.66;;;0.15;91.50
75697;BME280;64312;44.738;20.612;2023-01-29T01:30:21;101034.03;;;0.16;91.74
75697;BME280;64312;44.738;20.612;2023-01-29T01:32:47;101024.63;;;0.12;91.64
75697;BME280;64312;44.738;20.612;2023-01-29T01:35:13;101028.03;;;0.14;91.48
75697;BME280;64312;44.738;20.612;2023-01-29T01:37:39;101033.22;;;0.16;91.70
75697;BME280;64312;44.738;20.612;2023-01-29T01:40:08;101032.25;;;0.17;91.75
75697;BME280;64312;44.738;20.612;2023-01-29T01:42:40;101034.03;;;0.16;91.33
75697;BME280;64312;44.738;20.612;2023-01-29T01:45:13;101038.28;;;0.19;91.61
75697;BME280;64312;44.738;20.612;2023-01-29T01:47:46;101025.38;;;0.14;91.33
75697;BME280;64312;44.738;20.612;2023-01-29T01:52:54;101024.31;;;0.17;91.85
75697;BME280;64312;44.738;20.612;2023-01-29T01:55:25;101024.31;;;0.17;91.86
75697;BME280;64312;44.738;20.612;2023-01-29T01:57:56;101018.03;;;0.18;91.82
75697;BME280;64312;44.738;20.612;2023-01-29T02:00:25;101018.91;;;0.18;91.15
75697;BME280;64312;44.738;20.612;2023-01-29T02:02:51;101016.25;;;0.18;91.51
75697;BME280;64312;44.738;20.612;2023-01-29T02:05:36;101020.59;;;0.19;91.13
75697;BME280;64312;44.738;20.612;2023-01-29T02:09:12;101023.25;;;0.19;91.24
75697;BME280;64312;44.738;20.612;2023-01-29T02:11:34;101016.25;;;0.18;90.62
75697;BME280;64312;44.738;20.612;2023-01-29T02:13:59;101016.25;;;0.18;91.15
75697;BME280;64312;44.738;20.612;2023-01-29T02:16:25;101023.25;;;0.19;90.97
75697;BME280;64312;44.738;20.612;2023-01-29T02:18:52;101020.69;;;0.18;91.25
75697;BME280;64312;44.738;20.612;2023-01-29T02:27:08;101031.72;;;0.12;90.84
75697;BME280;64312;44.738;20.612;2023-01-29T02:32:41;101035.13;;;0.14;91.27
75697;BME280;64312;44.738;20.612;2023-01-29T02:35:51;101030.56;;;0.16;91.56
75697;BME280;64312;44.738;20.612;2023-01-29T02:40:45;101037.78;;;0.14;91.46
75697;BME280;64312;44.738;20.612;2023-01-29T02:43:26;101040.31;;;0.15;91.38
75697;BME280;64312;44.738;20.612;2023-01-29T02:46:27;101046.31;;;0.17;91.13
75697;BME280;64312;44.738;20.612;2023-01-29T02:49:06;101055.03;;;0.19;90.88
75697;BME280;64312;44.738;20.612;2023-01-29T02:51:45;101053.22;;;0.20;91.48
75697;BME280;64312;44.738;20.612;2023-01-29T02:56:51;101053.22;;;0.20;90.75
75697;BME280;64312;44.738;20.612;2023-01-29T02:59:19;101054.06;;;0.20;91.11
75697;BME280;64312;44.738;20.612;2023-01-29T03:01:50;101050.59;;;0.20;90.62
75697;BME280;64312;44.738;20.612;2023-01-29T03:04:28;101056.81;;;0.19;90.62
75697;BME280;64312;44.738;20.612;2023-01-29T03:07:06;101059.38;;;0.20;90.83
75697;BME280;64312;44.738;20.612;2023-01-29T03:09:40;101056.72;;;0.20;91.25
75697;BME280;64312;44.738;20.612;2023-01-29T03:12:21;101051.31;;;0.22;90.82
75697;BME280;64312;44.738;20.612;2023-01-29T03:15:04;101059.38;;;0.20;90.91
75697;BME280;64312;44.738;20.612;2023-01-29T03:17:53;101061.06;;;0.21;90.59
75697;BME280;64312;44.738;20.612;2023-01-29T03:20:23;101057.56;;;0.21;90.70
75697;BME280;64312;44.738;20.612;2023-01-29T03:22:52;101059.38;;;0.20;90.97
75697;BME280;64312;44.738;20.612;2023-01-29T03:25:21;101055.13;;;0.18;90.60
75697;BME280;64312;44.738;20.612;2023-01-29T03:28:09;101057.75;;;0.18;91.00
75697;BME280;64312;44.738;20.612;2023-01-29T03:30:59;101061.38;;;0.17;91.05
75697;BME280;64312;44.738;20.612;2023-01-29T03:33:58;101058.72;;;0.17;90.96
75697;BME280;64312;44.738;20.612;2023-01-29T03:36:38;101056.91;;;0.17;91.58
75697;BME280;64312;44.738;20.612;2023-01-29T03:39:12;101062.09;;;0.19;90.94
75697;BME280;64312;44.738;20.612;2023-01-29T03:41:44;101063.81;;;0.20;90.88
75697;BME280;64312;44.738;20.612;2023-01-29T03:47:26;101065.41;;;0.22;90.93
75697;BME280;64312;44.738;20.612;2023-01-29T03:55:36;101074.06;;;0.24;91.09
75697;BME280;64312;44.738;20.612;2023-01-29T03:58:28;101074.06;;;0.24;91.10
75697;BME280;64312;44.738;20.612;2023-01-29T04:01:03;101070.56;;;0.24;90.45
75697;BME280;64312;44.738;20.612;2023-01-29T04:03:38;101073.03;;;0.27;90.50
75697;BME280;64312;44.738;20.612;2023-01-29T04:06:15;101068.56;;;0.28;90.72
75697;BME280;64312;44.738;20.612;2023-01-29T04:09:20;101055.75;;;0.21;90.44
75697;BME280;64312;44.738;20.612;2023-01-29T04:12:39;101059.97;;;0.24;90.46
75697;BME280;64312;44.738;20.612;2023-01-29T04:15:11;101073.22;;;0.24;90.26
75697;BME280;64312;44.738;20.612;2023-01-29T04:17:42;101074.28;;;0.21;90.68
75697;BME280;64312;44.738;20.612;2023-01-29T04:20:24;101075.13;;;0.22;90.52
75697;BME280;64312;44.738;20.612;2023-01-29T04:22:51;101089.34;;;0.21;90.46
75697;BME280;64312;44.738;20.612;2023-01-29T04:25:28;101072.06;;;0.15;90.31
75697;BME280;64312;44.738;20.612;2023-01-29T04:30:51;101084.03;;;0.21;90.93
75697;BME280;64312;44.738;20.612;2023-01-29T04:36:40;101076.94;;;0.21;90.79
75697;BME280;64312;44.738;20.612;2023-01-29T04:47:30;101088.91;;;0.27;90.59
75697;BME280;64312;44.738;20.612;2023-01-29T04:52:56;101090.59;;;0.28;90.16
75697;BME280;64312;44.738;20.612;2023-01-29T04:55:39;101087.84;;;0.30;90.62
75697;BME280;64312;44.738;20.612;2023-01-29T05:00:43;101088.69;;;0.30;90.30
75697;BME280;64312;44.738;20.612;2023-01-29T05:03:12;101089.53;;;0.31;89.96
75697;BME280;64312;44.738;20.612;2023-01-29T05:05:41;101100.00;;;0.32;90.00
75697;BME280;64312;44.738;20.612;2023-01-29T05:08:11;101082.53;;;0.30;89.40
75697;BME280;64312;44.738;20.612;2023-01-29T05:10:38;101095.47;;;0.34;89.55
75697;BME280;64312;44.738;20.612;2023-01-29T05:13:05;101098.25;;;0.33;89.77
75697;BME280;64312;44.738;20.612;2023-01-29T05:15:38;101104.47;;;0.32;89.57
75697;BME280;64312;44.738;20.612;2023-01-29T05:18:05;101106.19;;;0.33;89.58
75697;BME280;64312;44.738;20.612;2023-01-29T05:20:34;101096.00;;;0.26;90.42
75697;BME280;64312;44.738;20.612;2023-01-29T05:23:01;101112.31;;;0.33;89.55
75697;BME280;64312;44.738;20.612;2023-01-29T05:25:30;101113.25;;;0.32;89.45
75697;BME280;64312;44.738;20.612;2023-01-29T05:27:56;101112.41;;;0.32;89.10
75697;BME280;64312;44.738;20.612;2023-01-29T05:30:43;101111.78;;;0.28;89.49
75697;BME280;64312;44.738;20.612;2023-01-29T05:33:17;101114.22;;;0.31;89.52
75697;BME280;64312;44.738;20.612;2023-01-29T05:35:44;101119.41;;;0.33;89.37
75697;BME280;64312;44.738;20.612;2023-01-29T05:38:10;101118.53;;;0.32;89.66
75697;BME280;64312;44.738;20.612;2023-01-29T05:40:36;101129.13;;;0.32;89.40
75697;BME280;64312;44.738;20.612;2023-01-29T05:43:02;101120.47;;;0.30;89.18
75697;BME280;64312;44.738;20.612;2023-01-29T05:45:29;101131.78;;;0.32;88.91
75697;BME280;64312;44.738;20.612;2023-01-29T05:47:58;101136.03;;;0.35;89.26
75697;BME280;64312;44.738;20.612;2023-01-29T05:50:26;101139.53;;;0.35;89.05
75697;BME280;64312;44.738;20.612;2023-01-29T05:52:56;101129.69;;;0.37;89.32
75697;BME280;64312;44.738;20.612;2023-01-29T05:55:22;101138.38;;;0.39;89.27
75697;BME280;64312;44.738;20.612;2023-01-29T05:57:47;101142.59;;;0.42;88.95
75697;BME280;64312;44.738;20.612;2023-01-29T06:00:14;101144.19;;;0.44;88.77
75697;BME280;64312;44.738;20.612;2023-01-29T06:02:40;101135.31;;;0.45;88.74
75697;BME280;64312;44.738;20.612;2023-01-29T06:05:06;101139.66;;;0.46;88.67
75697;BME280;64312;44.738;20.612;2023-01-29T06:07:32;101143.03;;;0.48;88.69
75697;BME280;64312;44.738;20.612;2023-01-29T06:09:58;101139.66;;;0.46;87.94
75697;BME280;64312;44.738;20.612;2023-01-29T06:12:25;101149.06;;;0.50;87.95
75697;BME280;64312;44.738;20.612;2023-01-29T06:14:51;101137.63;;;0.50;88.20
75697;BME280;64312;44.738;20.612;2023-01-29T06:17:16;101148.22;;;0.50;86.98
75697;BME280;64312;44.738;20.612;2023-01-29T06:19:42;101159.56;;;0.52;87.34
75697;BME280;64312;44.738;20.612;2023-01-29T06:22:07;101150.97;;;0.48;86.66
75697;BME280;64312;44.738;20.612;2023-01-29T06:24:33;101153.94;;;0.44;85.87
75697;BME280;64312;44.738;20.612;2023-01-29T06:26:59;101163.38;;;0.48;85.82
75697;BME280;64312;44.738;20.612;2023-01-29T06:29:24;101168.78;;;0.46;86.00
75697;BME280;64312;44.738;20.612;2023-01-29T06:31:50;101175.78;;;0.47;86.00
75697;BME280;64312;44.738;20.612;2023-01-29T06:34:16;101171.50;;;0.45;85.77
75697;BME280;64312;44.738;20.612;2023-01-29T06:36:41;101173.84;;;0.49;86.33
75697;BME280;64312;44.738;20.612;2023-01-29T06:39:07;101171.84;;;0.53;86.46
75697;BME280;64312;44.738;20.612;2023-01-29T06:41:33;101176.09;;;0.56;86.30
75697;BME280;64312;44.738;20.612;2023-01-29T06:43:59;101176.72;;;0.59;85.28
75697;BME280;64312;44.738;20.612;2023-01-29T06:46:25;101181.19;;;0.59;85.21
75697;BME280;64312;44.738;20.612;2023-01-29T06:48:50;101177.69;;;0.58;84.91
75697;BME280;64312;44.738;20.612;2023-01-29T06:51:16;101175.13;;;0.57;85.58
75697;BME280;64312;44.738;20.612;2023-01-29T06:53:42;101181.91;;;0.61;85.13
75697;BME280;64312;44.738;20.612;2023-01-29T06:56:07;101185.19;;;0.64;85.48
75697;BME280;64312;44.738;20.612;2023-01-29T06:58:36;101187.84;;;0.64;85.44
75697;BME280;64312;44.738;20.612;2023-01-29T07:01:06;101186.13;;;0.63;85.31
75697;BME280;64312;44.738;20.612;2023-01-29T07:03:33;101187.75;;;0.66;85.46
75697;BME280;64312;44.738;20.612;2023-01-29T07:05:58;101196.44;;;0.68;85.09
75697;BME280;64312;44.738;20.612;2023-01-29T07:08:24;101184.34;;;0.64;85.03
75697;BME280;64312;44.738;20.612;2023-01-29T07:10:50;101194.00;;;0.65;85.27
75697;BME280;64312;44.738;20.612;2023-01-29T07:13:16;101198.84;;;0.71;85.78
75697;BME280;64312;44.738;20.612;2023-01-29T07:15:42;101200.56;;;0.72;84.98
75697;BME280;64312;44.738;20.612;2023-01-29T07:18:09;101199.06;;;0.68;84.81
75697;BME280;64312;44.738;20.612;2023-01-29T07:20:39;101212.03;;;0.72;84.87
75697;BME280;64312;44.738;20.612;2023-01-29T07:23:05;101208.59;;;0.70;84.76
75697;BME280;64312;44.738;20.612;2023-01-29T07:25:32;101215.63;;;0.71;84.55
75697;BME280;64312;44.738;20.612;2023-01-29T07:28:02;101212.97;;;0.71;84.57
75697;BME280;64312;44.738;20.612;2023-01-29T07:30:27;101209.56;;;0.69;84.04
75697;BME280;64312;44.738;20.612;2023-01-29T07:32:54;101214.97;;;0.68;84.06
75697;BME280;64312;44.738;20.612;2023-01-29T07:35:19;101209.69;;;0.68;84.83
75697;BME280;64312;44.738;20.612;2023-01-29T07:37:49;101212.31;;;0.68;84.75
75697;BME280;64312;44.738;20.612;2023-01-29T07:40:14;101206.19;;;0.67;84.36
75697;BME280;64312;44.738;20.612;2023-01-29T07:42:41;101208.84;;;0.67;84.63
75697;BME280;64312;44.738;20.612;2023-01-29T07:45:09;101206.06;;;0.69;84.50
75697;BME280;64312;44.738;20.612;2023-01-29T07:47:35;101205.34;;;0.67;84.56
75697;BME280;64312;44.738;20.612;2023-01-29T07:50:01;101212.22;;;0.69;84.58
75697;BME280;64312;44.738;20.612;2023-01-29T07:52:31;101209.78;;;0.66;84.91
75697;BME280;64312;44.738;20.612;2023-01-29T07:54:57;101217.84;;;0.65;85.29
75697;BME280;64312;44.738;20.612;2023-01-29T07:57:24;101208.19;;;0.64;84.95
75697;BME280;64312;44.738;20.612;2023-01-29T07:59:49;101210.09;;;0.62;84.65
75697;BME280;64312;44.738;20.612;2023-01-29T08:02:15;101228.53;;;0.63;85.38
75697;BME280;64312;44.738;20.612;2023-01-29T08:04:41;101221.44;;;0.64;85.52
75697;BME280;64312;44.738;20.612;2023-01-29T08:07:07;101212.88;;;0.60;85.35
75697;BME280;64312;44.738;20.612;2023-01-29T08:09:34;101215.50;;;0.60;85.37
75697;BME280;64312;44.738;20.612;2023-01-29T08:12:00;101216.91;;;0.66;85.84
75697;BME280;64312;44.738;20.612;2023-01-29T08:14:26;101221.34;;;0.65;85.30
75697;BME280;64312;44.738;20.612;2023-01-29T08:16:51;101226.66;;;0.65;85.79
75697;BME280;64312;44.738;20.612;2023-01-29T08:19:17;101229.31;;;0.65;86.00
75697;BME280;64312;44.738;20.612;2023-01-29T08:21:43;101238.94;;;0.66;86.22
75697;BME280;64312;44.738;20.612;2023-01-29T08:24:08;101242.31;;;0.68;85.60
75697;BME280;64312;44.738;20.612;2023-01-29T08:26:34;101235.34;;;0.67;85.58
75697;BME280;64312;44.738;20.612;2023-01-29T08:29:00;101235.44;;;0.66;84.53
75697;BME280;64312;44.738;20.612;2023-01-29T08:31:25;101246.88;;;0.66;84.48
75697;BME280;64312;44.738;20.612;2023-01-29T08:33:53;101256.53;;;0.67;83.57
75697;BME280;64312;44.738;20.612;2023-01-29T08:36:20;101269.56;;;0.70;83.96
75697;BME280;64312;44.738;20.612;2023-01-29T08:38:45;101252.63;;;0.73;83.12
75697;BME280;64312;44.738;20.612;2023-01-29T08:41:11;101262.16;;;0.75;82.74
75697;BME280;64312;44.738;20.612;2023-01-29T08:43:37;101262.78;;;0.79;83.22
75697;BME280;64312;44.738;20.612;2023-01-29T08:46:04;101260.69;;;0.84;83.22
75697;BME280;64312;44.738;20.612;2023-01-29T08:48:30;101259.81;;;0.84;82.06
75697;BME280;64312;44.738;20.612;2023-01-29T08:50:57;101255.88;;;0.89;82.22
75697;BME280;64312;44.738;20.612;2023-01-29T08:53:23;101261.72;;;0.94;82.23
75697;BME280;64312;44.738;20.612;2023-01-29T08:55:51;101256.31;;;0.96;80.89
75697;BME280;64312;44.738;20.612;2023-01-29T08:58:17;101263.09;;;1.00;80.78
75697;BME280;64312;44.738;20.612;2023-01-29T09:00:43;101267.31;;;1.02;79.57
75697;BME280;64312;44.738;20.612;2023-01-29T09:03:08;101263.63;;;1.05;79.13
75697;BME280;64312;44.738;20.612;2023-01-29T09:05:35;101268.63;;;1.10;80.59
75697;BME280;64312;44.738;20.612;2023-01-29T09:08:02;101260.56;;;1.11;80.10
75697;BME280;64312;44.738;20.612;2023-01-29T09:10:28;101276.34;;;1.13;79.67
75697;BME280;64312;44.738;20.612;2023-01-29T09:12:53;101268.50;;;1.11;79.27
75697;BME280;64312;44.738;20.612;2023-01-29T09:15:19;101276.13;;;1.16;80.30
75697;BME280;64312;44.738;20.612;2023-01-29T09:17:45;101270.72;;;1.17;80.14
75697;BME280;64312;44.738;20.612;2023-01-29T09:20:11;101267.97;;;1.19;80.31
75697;BME280;64312;44.738;20.612;2023-01-29T09:22:36;101265.84;;;1.24;79.45
75697;BME280;64312;44.738;20.612;2023-01-29T09:25:03;101256.69;;;1.28;79.69
75697;BME280;64312;44.738;20.612;2023-01-29T09:27:28;101261.69;;;1.32;79.79
75697;BME280;64312;44.738;20.612;2023-01-29T09:29:54;101260.50;;;1.37;78.69
75697;BME280;64312;44.738;20.612;2023-01-29T09:32:19;101258.59;;;1.39;79.02
75697;BME280;64312;44.738;20.612;2023-01-29T09:34:45;101251.34;;;1.41;79.04
75697;BME280;64312;44.738;20.612;2023-01-29T09:37:11;101265.38;;;1.43;79.11
75697;BME280;64312;44.738;20.612;2023-01-29T09:39:36;101258.47;;;1.40;78.63
75697;BME280;64312;44.738;20.612;2023-01-29T09:47:31;101253.47;;;1.48;79.09
75697;BME280;64312;44.738;20.612;2023-01-29T09:50:07;101243.59;;;1.50;80.11
75697;BME280;64312;44.738;20.612;2023-01-29T09:52:41;101240.63;;;1.55;78.94
75697;BME280;64312;44.738;20.612;2023-01-29T09:55:32;101239.53;;;1.57;79.16
75697;BME280;64312;44.738;20.612;2023-01-29T09:58:37;101240.16;;;1.61;78.53
75697;BME280;64312;44.738;20.612;2023-01-29T10:07:02;101235.31;;;1.55;78.47
75697;BME280;64312;44.738;20.612;2023-01-29T10:13:04;101223.34;;;1.49;78.61
75697;BME280;64312;44.738;20.612;2023-01-29T10:17:51;101225.03;;;1.74;78.13
75697;BME280;64312;44.738;20.612;2023-01-29T10:23:38;101218.72;;;1.88;78.00
75697;BME280;64312;44.738;20.612;2023-01-29T10:26:11;101225.00;;;1.87;76.79
75697;BME280;64312;44.738;20.612;2023-01-29T10:28:41;101215.53;;;1.83;77.82
75697;BME280;64312;44.738;20.612;2023-01-29T10:31:31;101215.53;;;1.83;77.23
75697;BME280;64312;44.738;20.612;2023-01-29T10:34:14;101218.53;;;1.78;76.85
75697;BME280;64312;44.738;20.612;2023-01-29T10:36:46;101209.72;;;1.78;77.16
75697;BME280;64312;44.738;20.612;2023-01-29T10:39:17;101206.94;;;1.79;76.43
75697;BME280;64312;44.738;20.612;2023-01-29T10:42:36;101199.09;;;1.78;76.94
75697;BME280;64312;44.738;20.612;2023-01-29T10:47:22;101206.88;;;1.92;76.77
75697;BME280;64312;44.738;20.612;2023-01-29T10:50:03;101194.97;;;1.98;77.28
75697;BME280;64312;44.738;20.612;2023-01-29T10:52:54;101199.56;;;1.96;75.95
75697;BME280;64312;44.738;20.612;2023-01-29T10:59:07;101217.81;;;2.00;76.77
75697;BME280;64312;44.738;20.612;2023-01-29T11:01:36;101201.97;;;1.99;75.79
75697;BME280;64312;44.738;20.612;2023-01-29T11:04:03;101194.00;;;1.99;76.86
75697;BME280;64312;44.738;20.612;2023-01-29T11:06:30;101196.81;;;2.08;76.71
75697;BME280;64312;44.738;20.612;2023-01-29T11:09:15;101210.31;;;2.05;75.64
75697;BME280;64312;44.738;20.612;2023-01-29T11:11:49;101190.78;;;2.06;75.33
75697;BME280;64312;44.738;20.612;2023-01-29T11:14:26;101187.75;;;2.11;76.05
75697;BME280;64312;44.738;20.612;2023-01-29T11:16:53;101185.72;;;2.14;75.60
75697;BME280;64312;44.738;20.612;2023-01-29T11:19:39;101183.47;;;2.21;75.30
75697;BME280;64312;44.738;20.612;2023-01-29T11:22:15;101182.50;;;2.22;75.07
75697;BME280;64312;44.738;20.612;2023-01-29T11:24:41;101183.47;;;2.21;74.65
75697;BME280;64312;44.738;20.612;2023-01-29T11:27:23;101179.72;;;2.24;75.57
75697;BME280;64312;44.738;20.612;2023-01-29T11:29:52;101170.91;;;2.23;75.17
75697;BME280;64312;44.738;20.612;2023-01-29T11:35:03;101176.53;;;2.18;nan
75697;BME280;64312;44.738;20.612;2023-01-29T11:37:37;101177.19;;;2.22;75.39
75697;BME280;64312;44.738;20.612;2023-01-29T11:40:38;101166.41;;;2.24;75.71
75697;BME280;64312;44.738;20.612;2023-01-29T11:43:22;101170.38;;;2.18;75.01
75697;BME280;64312;44.738;20.612;2023-01-29T11:45:54;101171.16;;;2.20;75.59
75697;BME280;64312;44.738;20.612;2023-01-29T11:48:22;101178.88;;;2.23;75.36
75697;BME280;64312;44.738;20.612;2023-01-29T11:50:59;101180.09;;;2.19;75.65
75697;BME280;64312;44.738;20.612;2023-01-29T11:53:37;101189.09;;;2.16;74.39
75697;BME280;64312;44.738;20.612;2023-01-29T11:56:14;101185.09;;;2.11;75.40
75697;BME280;64312;44.738;20.612;2023-01-29T11:58:41;101197.16;;;2.04;74.98
75697;BME280;64312;44.738;20.612;2023-01-29T12:01:08;101197.94;;;1.93;75.40
75697;BME280;64312;44.738;20.612;2023-01-29T12:04:02;101187.81;;;1.87;75.43
75697;BME280;64312;44.738;20.612;2023-01-29T12:06:34;101191.06;;;1.90;75.67
75697;BME280;64312;44.738;20.612;2023-01-29T12:09:13;101187.69;;;1.88;75.73
75697;BME280;64312;44.738;20.612;2023-01-29T12:11:40;101177.28;;;1.85;75.52
75697;BME280;64312;44.738;20.612;2023-01-29T12:14:23;101177.28;;;1.85;75.56
75697;BME280;64312;44.738;20.612;2023-01-29T12:16:58;101182.97;;;1.81;75.42
75697;BME280;64312;44.738;20.612;2023-01-29T12:22:04;101176.50;;;1.72;74.98
75697;BME280;64312;44.738;20.612;2023-01-29T12:27:06;101179.53;;;1.68;75.09
75697;BME280;64312;44.738;20.612;2023-01-29T12:29:44;101179.63;;;1.66;75.21
75697;BME280;64312;44.738;20.612;2023-01-29T12:32:33;101177.81;;;1.67;75.71
75697;BME280;64312;44.738;20.612;2023-01-29T12:35:09;101182.06;;;1.69;75.54
75697;BME280;64312;44.738;20.612;2023-01-29T12:37:45;101180.47;;;1.67;74.99
75697;BME280;64312;44.738;20.612;2023-01-29T12:40:16;101183.13;;;1.67;74.68
75697;BME280;64312;44.738;20.612;2023-01-29T12:42:50;101182.91;;;1.70;75.17
75697;BME280;64312;44.738;20.612;2023-01-29T12:45:20;101180.25;;;1.70;74.64
75697;BME280;64312;44.738;20.612;2023-01-29T12:47:50;101180.81;;;1.62;74.10
75697;BME280;64312;44.738;20.612;2023-01-29T12:50:29;101181.66;;;1.62;74.68
75697;BME280;64312;44.738;20.612;2023-01-29T12:52:59;101190.16;;;1.68;75.69
75697;BME280;64312;44.738;20.612;2023-01-29T12:55:31;101182.19;;;1.68;74.83
75697;BME280;64312;44.738;20.612;2023-01-29T12:58:03;101188.34;;;1.68;75.00
75697;BME280;64312;44.738;20.612;2023-01-29T13:00:36;101193.72;;;1.67;74.67
75697;BME280;64312;44.738;20.612;2023-01-29T13:03:16;101189.50;;;1.64;75.02
75697;BME280;64312;44.738;20.612;2023-01-29T13:05:50;101194.81;;;1.64;75.20
75697;BME280;64312;44.738;20.612;2023-01-29T13:08:23;101198.19;;;1.66;75.84
75697;BME280;64312;44.738;20.612;2023-01-29T13:10:53;101191.06;;;1.67;75.97
75697;BME280;64312;44.738;20.612;2023-01-29T13:16:11;101184.59;;;1.71;75.30
75697;BME280;64312;44.738;20.612;2023-01-29T13:18:57;101188.81;;;1.73;75.56
75697;BME280;64312;44.738;20.612;2023-01-29T13:21:27;101197.41;;;1.77;75.33
75697;BME280;64312;44.738;20.612;2023-01-29T13:24:01;101193.78;;;1.78;74.66
75697;BME280;64312;44.738;20.612;2023-01-29T13:26:27;101191.38;;;1.75;75.20
75697;BME280;64312;44.738;20.612;2023-01-29T13:28:55;101195.94;;;1.73;74.45
75697;BME280;64312;44.738;20.612;2023-01-29T13:31:35;101187.25;;;1.71;74.60
75697;BME280;64312;44.738;20.612;2023-01-29T13:34:25;101195.09;;;1.72;75.17
75697;BME280;64312;44.738;20.612;2023-01-29T13:36:59;101182.91;;;1.70;75.52
75697;BME280;64312;44.738;20.612;2023-01-29T13:39:30;101196.91;;;1.72;75.43
75697;BME280;64312;44.738;20.612;2023-01-29T13:41:59;101188.09;;;1.71;76.06
75697;BME280;64312;44.738;20.612;2023-01-29T13:44:37;101187.75;;;1.76;75.59
75697;BME280;64312;44.738;20.612;2023-01-29T13:47:07;101187.63;;;1.77;75.08
75697;BME280;64312;44.738;20.612;2023-01-29T13:55:31;101192.09;;;1.77;75.33
75697;BME280;64312;44.738;20.612;2023-01-29T13:58:01;101198.91;;;1.81;75.68
75697;BME280;64312;44.738;20.612;2023-01-29T14:00:50;101183.31;;;1.76;75.56
75697;BME280;64312;44.738;20.612;2023-01-29T14:05:55;101203.25;;;1.82;76.03
75697;BME280;64312;44.738;20.612;2023-01-29T14:13:38;101211.53;;;1.77;75.45
75697;BME280;64312;44.738;20.612;2023-01-29T14:18:36;101204.88;;;1.72;76.02
75697;BME280;64312;44.738;20.612;2023-01-29T14:23:44;101213.66;;;1.72;76.18
75697;BME280;64312;44.738;20.612;2023-01-29T14:29:04;101204.03;;;1.71;76.01
75697;BME280;64312;44.738;20.612;2023-01-29T14:31:39;101204.88;;;1.72;76.36
75697;BME280;64312;44.738;20.612;2023-01-29T14:37:21;101206.47;;;1.74;76.33
75697;BME280;64312;44.738;20.612;2023-01-29T14:42:59;101202.00;;;1.75;76.94
75697;BME280;64312;44.738;20.612;2023-01-29T14:45:31;101207.53;;;1.72;75.99
75697;BME280;64312;44.738;20.612;2023-01-29T14:51:07;101197.53;;;1.75;76.08
75697;BME280;64312;44.738;20.612;2023-01-29T14:53:48;101204.41;;;1.78;76.06
75697;BME280;64312;44.738;20.612;2023-01-29T14:56:33;101207.31;;;1.75;75.66
75697;BME280;64312;44.738;20.612;2023-01-29T14:59:19;101208.59;;;1.69;75.91
75697;BME280;64312;44.738;20.612;2023-01-29T15:01:52;101203.50;;;1.66;75.77
75697;BME280;64312;44.738;20.612;2023-01-29T15:04:42;101214.47;;;1.61;75.14
75697;BME280;64312;44.738;20.612;2023-01-29T15:09:45;101206.97;;;1.55;75.03